Terminal Aerodrome Forecast
Issued by NWS

Home | Current Version | Previous Version | Graphics & Text | Print | Product List | Glossary On
Versions: 1 2 3 4 5 6 7 8 9 10 11 12 13 14 15 16 17 18 19 20 21 22
446
FTUS43 KMPX 070102 AAA
TAFAXN
TAF AMD
KAXN 070102Z 0701/0724 25015G20KT P6SM VCSH OVC040
      TEMPO 0701/0705 4SM -RASNPL OVC035
     FM070600 27017G25KT P6SM VCSH SCT020 OVC035
     FM071200 29019G29KT P6SM OVC030
     FM071700 32023G35KT 2SM -SHSN BLSN OVC015=

USA.gov is the U.S. government's official web portal to all federal, state and local government web resources and services.